sensor_id;sensor_type;location;lat;lon;timestamp;P1;durP1;ratioP1;P2;durP2;ratioP2
61473;SDS011;53694;49.784;30.150;2022-09-13T00:00:12;4.02;;;2.43;;
61473;SDS011;53694;49.784;30.150;2022-09-13T00:01:13;4.18;;;2.27;;
61473;SDS011;53694;49.784;30.150;2022-09-13T00:02:15;8.23;;;2.85;;
61473;SDS011;53694;49.784;30.150;2022-09-13T00:03:17;4.80;;;2.54;;
61473;SDS011;53694;49.784;30.150;2022-09-13T00:04:19;5.16;;;2.89;;
61473;SDS011;53694;49.784;30.150;2022-09-13T00:05:20;4.24;;;2.66;;
61473;SDS011;53694;49.784;30.150;2022-09-13T00:06:22;4.35;;;2.68;;
61473;SDS011;53694;49.784;30.150;2022-09-13T00:07:24;5.05;;;2.91;;
61473;SDS011;53694;49.784;30.150;2022-09-13T00:08:25;5.29;;;2.74;;
61473;SDS011;53694;49.784;30.150;2022-09-13T00:09:27;5.66;;;3.55;;
61473;SDS011;53694;49.784;30.150;2022-09-13T00:10:29;5.30;;;3.13;;
61473;SDS011;53694;49.784;30.150;2022-09-13T00:11:31;5.55;;;2.94;;
61473;SDS011;53694;49.784;30.150;2022-09-13T00:12:32;5.75;;;3.43;;
61473;SDS011;53694;49.784;30.150;2022-09-13T00:13:34;4.77;;;3.17;;
61473;SDS011;53694;49.784;30.150;2022-09-13T00:14:36;7.04;;;3.64;;
61473;SDS011;53694;49.784;30.150;2022-09-13T00:15:47;5.93;;;2.84;;
61473;SDS011;53694;49.784;30.150;2022-09-13T00:16:45;4.57;;;2.60;;
61473;SDS011;53694;49.784;30.150;2022-09-13T00:17:47;4.16;;;2.49;;
61473;SDS011;53694;49.784;30.150;2022-09-13T00:18:48;5.66;;;2.51;;
61473;SDS011;53694;49.784;30.150;2022-09-13T00:19:50;4.77;;;2.49;;
61473;SDS011;53694;49.784;30.150;2022-09-13T00:20:51;4.24;;;2.11;;
61473;SDS011;53694;49.784;30.150;2022-09-13T00:21:55;4.52;;;2.60;;
61473;SDS011;53694;49.784;30.150;2022-09-13T00:22:56;4.29;;;2.34;;
61473;SDS011;53694;49.784;30.150;2022-09-13T00:23:58;3.94;;;2.45;;
61473;SDS011;53694;49.784;30.150;2022-09-13T00:24:59;4.34;;;2.56;;
61473;SDS011;53694;49.784;30.150;2022-09-13T00:26:06;4.79;;;2.60;;
61473;SDS011;53694;49.784;30.150;2022-09-13T00:27:10;4.86;;;2.54;;
61473;SDS011;53694;49.784;30.150;2022-09-13T00:28:11;3.67;;;2.43;;
61473;SDS011;53694;49.784;30.150;2022-09-13T00:29:12;4.70;;;2.71;;
61473;SDS011;53694;49.784;30.150;2022-09-13T00:30:16;4.71;;;2.84;;
61473;SDS011;53694;49.784;30.150;2022-09-13T00:31:17;5.49;;;3.08;;
61473;SDS011;53694;49.784;30.150;2022-09-13T00:32:20;6.21;;;3.07;;
61473;SDS011;53694;49.784;30.150;2022-09-13T00:33:22;5.19;;;3.60;;
61473;SDS011;53694;49.784;30.150;2022-09-13T00:34:23;4.83;;;3.19;;
61473;SDS011;53694;49.784;30.150;2022-09-13T00:35:25;5.24;;;3.34;;
61473;SDS011;53694;49.784;30.150;2022-09-13T00:36:27;5.21;;;3.34;;
61473;SDS011;53694;49.784;30.150;2022-09-13T00:37:29;4.85;;;3.29;;
61473;SDS011;53694;49.784;30.150;2022-09-13T00:38:31;4.21;;;2.72;;
61473;SDS011;53694;49.784;30.150;2022-09-13T00:39:34;5.72;;;2.63;;
61473;SDS011;53694;49.784;30.150;2022-09-13T00:40:36;5.18;;;2.57;;
61473;SDS011;53694;49.784;30.150;2022-09-13T00:41:38;4.18;;;2.56;;
61473;SDS011;53694;49.784;30.150;2022-09-13T00:42:39;5.55;;;2.76;;
61473;SDS011;53694;49.784;30.150;2022-09-13T00:43:43;4.82;;;2.24;;
61473;SDS011;53694;49.784;30.150;2022-09-13T00:44:53;4.47;;;2.68;;
61473;SDS011;53694;49.784;30.150;2022-09-13T00:46:00;3.61;;;2.12;;
61473;SDS011;53694;49.784;30.150;2022-09-13T00:47:02;3.99;;;2.39;;
61473;SDS011;53694;49.784;30.150;2022-09-13T00:48:04;4.32;;;2.32;;
61473;SDS011;53694;49.784;30.150;2022-09-13T00:50:32;4.44;;;2.57;;
61473;SDS011;53694;49.784;30.150;2022-09-13T00:51:36;4.42;;;2.83;;
61473;SDS011;53694;49.784;30.150;2022-09-13T00:52:39;4.74;;;2.82;;
61473;SDS011;53694;49.784;30.150;2022-09-13T00:53:43;4.85;;;2.86;;
61473;SDS011;53694;49.784;30.150;2022-09-13T00:54:56;4.89;;;2.81;;
61473;SDS011;53694;49.784;30.150;2022-09-13T00:56:00;4.28;;;2.54;;
61473;SDS011;53694;49.784;30.150;2022-09-13T00:57:04;4.56;;;2.85;;
61473;SDS011;53694;49.784;30.150;2022-09-13T00:58:12;4.48;;;2.63;;
61473;SDS011;53694;49.784;30.150;2022-09-13T00:59:21;4.42;;;2.05;;
61473;SDS011;53694;49.784;30.150;2022-09-13T01:00:21;3.69;;;2.06;;
61473;SDS011;53694;49.784;30.150;2022-09-13T01:01:25;4.08;;;2.06;;
61473;SDS011;53694;49.784;30.150;2022-09-13T01:02:29;3.57;;;2.01;;
61473;SDS011;53694;49.784;30.150;2022-09-13T01:03:32;3.35;;;2.12;;
61473;SDS011;53694;49.784;30.150;2022-09-13T01:04:35;3.53;;;1.99;;
61473;SDS011;53694;49.784;30.150;2022-09-13T01:05:42;4.91;;;2.11;;
61473;SDS011;53694;49.784;30.150;2022-09-13T01:06:46;2.91;;;1.85;;
61473;SDS011;53694;49.784;30.150;2022-09-13T01:07:50;2.93;;;1.85;;
61473;SDS011;53694;49.784;30.150;2022-09-13T01:08:52;4.79;;;2.05;;
61473;SDS011;53694;49.784;30.150;2022-09-13T01:09:54;4.30;;;2.11;;
61473;SDS011;53694;49.784;30.150;2022-09-13T01:10:56;3.33;;;2.27;;
61473;SDS011;53694;49.784;30.150;2022-09-13T01:12:01;3.10;;;1.92;;
61473;SDS011;53694;49.784;30.150;2022-09-13T01:13:12;5.59;;;2.34;;
61473;SDS011;53694;49.784;30.150;2022-09-13T01:14:17;4.81;;;2.52;;
61473;SDS011;53694;49.784;30.150;2022-09-13T01:15:20;3.50;;;2.15;;
61473;SDS011;53694;49.784;30.150;2022-09-13T01:16:22;4.37;;;2.34;;
61473;SDS011;53694;49.784;30.150;2022-09-13T01:17:25;3.79;;;2.51;;
61473;SDS011;53694;49.784;30.150;2022-09-13T01:18:28;3.76;;;2.22;;
61473;SDS011;53694;49.784;30.150;2022-09-13T01:19:30;3.11;;;1.76;;
61473;SDS011;53694;49.784;30.150;2022-09-13T01:26:25;2.54;;;1.44;;
61473;SDS011;53694;49.784;30.150;2022-09-13T01:33:47;2.72;;;1.62;;
61473;SDS011;53694;49.784;30.150;2022-09-13T01:39:07;3.31;;;1.86;;
61473;SDS011;53694;49.784;30.150;2022-09-13T01:46:51;2.11;;;1.20;;
61473;SDS011;53694;49.784;30.150;2022-09-13T01:49:05;1.84;;;0.99;;
61473;SDS011;53694;49.784;30.150;2022-09-13T01:51:29;1.95;;;1.04;;
61473;SDS011;53694;49.784;30.150;2022-09-13T01:52:40;2.39;;;1.07;;
61473;SDS011;53694;49.784;30.150;2022-09-13T01:55:25;3.11;;;1.14;;
61473;SDS011;53694;49.784;30.150;2022-09-13T01:56:59;2.24;;;1.20;;
61473;SDS011;53694;49.784;30.150;2022-09-13T01:58:15;2.49;;;1.19;;
61473;SDS011;53694;49.784;30.150;2022-09-13T01:59:20;2.86;;;1.21;;
61473;SDS011;53694;49.784;30.150;2022-09-13T02:00:43;2.51;;;1.32;;
61473;SDS011;53694;49.784;30.150;2022-09-13T02:01:53;3.69;;;1.42;;
61473;SDS011;53694;49.784;30.150;2022-09-13T02:03:05;3.55;;;1.49;;
61473;SDS011;53694;49.784;30.150;2022-09-13T02:04:11;4.62;;;1.11;;
61473;SDS011;53694;49.784;30.150;2022-09-13T02:05:21;2.42;;;1.17;;
61473;SDS011;53694;49.784;30.150;2022-09-13T02:06:27;2.00;;;0.93;;
61473;SDS011;53694;49.784;30.150;2022-09-13T02:07:33;2.35;;;0.96;;
61473;SDS011;53694;49.784;30.150;2022-09-13T02:08:38;2.42;;;1.13;;
61473;SDS011;53694;49.784;30.150;2022-09-13T02:09:50;3.84;;;1.13;;
61473;SDS011;53694;49.784;30.150;2022-09-13T02:10:55;1.89;;;1.00;;
61473;SDS011;53694;49.784;30.150;2022-09-13T02:12:04;2.66;;;1.01;;
61473;SDS011;53694;49.784;30.150;2022-09-13T02:13:11;2.69;;;0.98;;
61473;SDS011;53694;49.784;30.150;2022-09-13T02:14:19;0.91;;;0.71;;
61473;SDS011;53694;49.784;30.150;2022-09-13T02:16:48;2.99;;;1.36;;
61473;SDS011;53694;49.784;30.150;2022-09-13T02:17:54;1.51;;;1.00;;
61473;SDS011;53694;49.784;30.150;2022-09-13T02:18:58;3.64;;;1.13;;
61473;SDS011;53694;49.784;30.150;2022-09-13T02:20:05;3.14;;;1.13;;
61473;SDS011;53694;49.784;30.150;2022-09-13T02:21:10;2.31;;;1.26;;
61473;SDS011;53694;49.784;30.150;2022-09-13T02:22:14;1.78;;;1.11;;
61473;SDS011;53694;49.784;30.150;2022-09-13T02:23:35;3.33;;;1.43;;
61473;SDS011;53694;49.784;30.150;2022-09-13T02:24:41;1.87;;;1.14;;
61473;SDS011;53694;49.784;30.150;2022-09-13T02:25:46;1.73;;;1.00;;
61473;SDS011;53694;49.784;30.150;2022-09-13T02:26:50;1.82;;;1.02;;
61473;SDS011;53694;49.784;30.150;2022-09-13T02:27:54;2.25;;;1.10;;
61473;SDS011;53694;49.784;30.150;2022-09-13T02:29:00;1.78;;;0.91;;
61473;SDS011;53694;49.784;30.150;2022-09-13T02:30:09;4.36;;;1.09;;
61473;SDS011;53694;49.784;30.150;2022-09-13T02:31:10;2.44;;;1.00;;
61473;SDS011;53694;49.784;30.150;2022-09-13T02:32:19;2.96;;;0.89;;
61473;SDS011;53694;49.784;30.150;2022-09-13T02:34:29;1.61;;;0.79;;
61473;SDS011;53694;49.784;30.150;2022-09-13T02:35:40;2.53;;;0.99;;
61473;SDS011;53694;49.784;30.150;2022-09-13T02:36:43;3.20;;;1.20;;
61473;SDS011;53694;49.784;30.150;2022-09-13T02:37:47;5.38;;;2.59;;
61473;SDS011;53694;49.784;30.150;2022-09-13T02:38:55;2.34;;;0.87;;
61473;SDS011;53694;49.784;30.150;2022-09-13T02:40:04;2.73;;;1.13;;
61473;SDS011;53694;49.784;30.150;2022-09-13T02:41:09;2.09;;;1.08;;
61473;SDS011;53694;49.784;30.150;2022-09-13T02:42:17;2.49;;;1.21;;
61473;SDS011;53694;49.784;30.150;2022-09-13T02:43:30;2.86;;;1.38;;
61473;SDS011;53694;49.784;30.150;2022-09-13T02:44:36;2.38;;;1.49;;
61473;SDS011;53694;49.784;30.150;2022-09-13T02:45:47;2.31;;;1.10;;
61473;SDS011;53694;49.784;30.150;2022-09-13T02:48:19;2.19;;;1.06;;
61473;SDS011;53694;49.784;30.150;2022-09-13T02:49:25;2.30;;;1.09;;
61473;SDS011;53694;49.784;30.150;2022-09-13T02:56:09;2.79;;;0.94;;
61473;SDS011;53694;49.784;30.150;2022-09-13T02:57:13;1.94;;;0.89;;
61473;SDS011;53694;49.784;30.150;2022-09-13T02:59:35;1.36;;;0.90;;
61473;SDS011;53694;49.784;30.150;2022-09-13T03:00:37;2.29;;;1.04;;
61473;SDS011;53694;49.784;30.150;2022-09-13T03:01:39;2.18;;;1.07;;
61473;SDS011;53694;49.784;30.150;2022-09-13T03:02:44;6.42;;;1.21;;
61473;SDS011;53694;49.784;30.150;2022-09-13T03:03:50;3.31;;;1.15;;
61473;SDS011;53694;49.784;30.150;2022-09-13T03:04:52;2.59;;;1.15;;
61473;SDS011;53694;49.784;30.150;2022-09-13T03:05:54;2.23;;;1.29;;
61473;SDS011;53694;49.784;30.150;2022-09-13T03:06:56;3.49;;;1.60;;
61473;SDS011;53694;49.784;30.150;2022-09-13T03:07:57;3.03;;;1.40;;
61473;SDS011;53694;49.784;30.150;2022-09-13T03:09:01;3.25;;;1.47;;
61473;SDS011;53694;49.784;30.150;2022-09-13T03:10:06;4.12;;;1.34;;
61473;SDS011;53694;49.784;30.150;2022-09-13T03:15:18;3.86;;;1.20;;
61473;SDS011;53694;49.784;30.150;2022-09-13T03:18:02;3.24;;;1.07;;
61473;SDS011;53694;49.784;30.150;2022-09-13T03:19:05;2.46;;;1.04;;
61473;SDS011;53694;49.784;30.150;2022-09-13T03:20:17;2.38;;;1.17;;
61473;SDS011;53694;49.784;30.150;2022-09-13T03:21:31;3.35;;;1.50;;
61473;SDS011;53694;49.784;30.150;2022-09-13T03:24:27;3.51;;;1.69;;
61473;SDS011;53694;49.784;30.150;2022-09-13T03:25:40;5.07;;;1.76;;
61473;SDS011;53694;49.784;30.150;2022-09-13T03:26:48;3.29;;;1.57;;
61473;SDS011;53694;49.784;30.150;2022-09-13T03:28:02;3.29;;;1.60;;
61473;SDS011;53694;49.784;30.150;2022-09-13T03:29:23;4.22;;;2.14;;
61473;SDS011;53694;49.784;30.150;2022-09-13T03:30:27;4.12;;;1.89;;
61473;SDS011;53694;49.784;30.150;2022-09-13T03:33:00;3.86;;;2.01;;
61473;SDS011;53694;49.784;30.150;2022-09-13T03:37:59;3.74;;;1.91;;
61473;SDS011;53694;49.784;30.150;2022-09-13T03:39:11;4.11;;;1.89;;
61473;SDS011;53694;49.784;30.150;2022-09-13T03:41:31;3.08;;;1.52;;
61473;SDS011;53694;49.784;30.150;2022-09-13T03:42:38;3.63;;;1.61;;
61473;SDS011;53694;49.784;30.150;2022-09-13T03:44:00;4.26;;;1.77;;
61473;SDS011;53694;49.784;30.150;2022-09-13T03:44:52;4.03;;;2.14;;
61473;SDS011;53694;49.784;30.150;2022-09-13T03:45:58;3.89;;;1.67;;
61473;SDS011;53694;49.784;30.150;2022-09-13T03:47:02;4.76;;;2.11;;
61473;SDS011;53694;49.784;30.150;2022-09-13T03:48:05;5.32;;;2.21;;
61473;SDS011;53694;49.784;30.150;2022-09-13T03:49:12;4.63;;;2.15;;
61473;SDS011;53694;49.784;30.150;2022-09-13T03:50:17;4.44;;;2.13;;
61473;SDS011;53694;49.784;30.150;2022-09-13T03:51:21;4.88;;;2.63;;
61473;SDS011;53694;49.784;30.150;2022-09-13T03:52:23;4.92;;;2.24;;
61473;SDS011;53694;49.784;30.150;2022-09-13T03:53:26;4.43;;;1.97;;
61473;SDS011;53694;49.784;30.150;2022-09-13T03:54:30;3.55;;;1.76;;
61473;SDS011;53694;49.784;30.150;2022-09-13T03:55:37;4.28;;;2.04;;
61473;SDS011;53694;49.784;30.150;2022-09-13T03:56:40;3.76;;;2.06;;
61473;SDS011;53694;49.784;30.150;2022-09-13T03:57:41;4.06;;;1.87;;
61473;SDS011;53694;49.784;30.150;2022-09-13T03:58:43;4.81;;;2.10;;
61473;SDS011;53694;49.784;30.150;2022-09-13T03:59:47;3.45;;;1.75;;
61473;SDS011;53694;49.784;30.150;2022-09-13T04:00:50;5.43;;;1.79;;
61473;SDS011;53694;49.784;30.150;2022-09-13T04:01:52;3.93;;;1.79;;
61473;SDS011;53694;49.784;30.150;2022-09-13T04:02:53;4.06;;;1.68;;
61473;SDS011;53694;49.784;30.150;2022-09-13T04:03:55;3.57;;;1.70;;
61473;SDS011;53694;49.784;30.150;2022-09-13T04:04:56;3.41;;;1.64;;
61473;SDS011;53694;49.784;30.150;2022-09-13T04:05:58;3.58;;;1.77;;
61473;SDS011;53694;49.784;30.150;2022-09-13T04:06:59;3.63;;;1.87;;
61473;SDS011;53694;49.784;30.150;2022-09-13T04:08:02;4.16;;;2.18;;
61473;SDS011;53694;49.784;30.150;2022-09-13T04:09:05;3.51;;;1.97;;
61473;SDS011;53694;49.784;30.150;2022-09-13T04:10:07;4.39;;;1.92;;
61473;SDS011;53694;49.784;30.150;2022-09-13T04:11:09;5.91;;;2.71;;
61473;SDS011;53694;49.784;30.150;2022-09-13T04:12:11;3.86;;;1.99;;
61473;SDS011;53694;49.784;30.150;2022-09-13T04:13:14;5.21;;;2.39;;
61473;SDS011;53694;49.784;30.150;2022-09-13T04:14:15;3.23;;;1.89;;
61473;SDS011;53694;49.784;30.150;2022-09-13T04:15:17;3.24;;;1.79;;
61473;SDS011;53694;49.784;30.150;2022-09-13T04:16:19;4.21;;;2.27;;
61473;SDS011;53694;49.784;30.150;2022-09-13T04:17:20;4.23;;;1.84;;
61473;SDS011;53694;49.784;30.150;2022-09-13T04:18:22;3.39;;;1.63;;
61473;SDS011;53694;49.784;30.150;2022-09-13T04:19:24;4.82;;;1.77;;
61473;SDS011;53694;49.784;30.150;2022-09-13T04:20:26;2.55;;;1.47;;
61473;SDS011;53694;49.784;30.150;2022-09-13T04:21:28;3.40;;;1.79;;
61473;SDS011;53694;49.784;30.150;2022-09-13T04:22:29;4.82;;;1.80;;
61473;SDS011;53694;49.784;30.150;2022-09-13T04:23:31;3.67;;;1.59;;
61473;SDS011;53694;49.784;30.150;2022-09-13T04:24:33;3.92;;;1.59;;
61473;SDS011;53694;49.784;30.150;2022-09-13T04:25:37;5.07;;;2.19;;
61473;SDS011;53694;49.784;30.150;2022-09-13T04:26:39;4.05;;;1.74;;
61473;SDS011;53694;49.784;30.150;2022-09-13T04:27:41;4.38;;;2.32;;
61473;SDS011;53694;49.784;30.150;2022-09-13T04:28:42;5.51;;;2.19;;
61473;SDS011;53694;49.784;30.150;2022-09-13T04:29:44;5.28;;;2.36;;
61473;SDS011;53694;49.784;30.150;2022-09-13T04:30:47;5.06;;;3.31;;
61473;SDS011;53694;49.784;30.150;2022-09-13T04:31:50;5.41;;;2.81;;
61473;SDS011;53694;49.784;30.150;2022-09-13T04:32:53;5.71;;;2.62;;
61473;SDS011;53694;49.784;30.150;2022-09-13T04:33:54;4.72;;;2.57;;
61473;SDS011;53694;49.784;30.150;2022-09-13T04:34:56;3.98;;;2.44;;
61473;SDS011;53694;49.784;30.150;2022-09-13T04:35:58;5.44;;;2.69;;
61473;SDS011;53694;49.784;30.150;2022-09-13T04:37:00;3.69;;;1.98;;
61473;SDS011;53694;49.784;30.150;2022-09-13T04:38:02;5.81;;;2.47;;
61473;SDS011;53694;49.784;30.150;2022-09-13T04:39:03;4.66;;;2.25;;
61473;SDS011;53694;49.784;30.150;2022-09-13T04:40:05;5.54;;;2.18;;
61473;SDS011;53694;49.784;30.150;2022-09-13T04:41:08;4.61;;;2.33;;
61473;SDS011;53694;49.784;30.150;2022-09-13T04:42:12;4.39;;;2.31;;
61473;SDS011;53694;49.784;30.150;2022-09-13T04:43:17;4.72;;;2.58;;
61473;SDS011;53694;49.784;30.150;2022-09-13T04:44:18;3.49;;;1.89;;
61473;SDS011;53694;49.784;30.150;2022-09-13T04:45:25;4.18;;;1.80;;
61473;SDS011;53694;49.784;30.150;2022-09-13T04:46:25;5.96;;;2.09;;
61473;SDS011;53694;49.784;30.150;2022-09-13T04:47:26;4.58;;;1.85;;
61473;SDS011;53694;49.784;30.150;2022-09-13T04:48:28;5.01;;;2.16;;
61473;SDS011;53694;49.784;30.150;2022-09-13T04:49:30;3.29;;;1.58;;
61473;SDS011;53694;49.784;30.150;2022-09-13T04:50:32;4.45;;;2.14;;
61473;SDS011;53694;49.784;30.150;2022-09-13T04:51:33;4.62;;;2.46;;
61473;SDS011;53694;49.784;30.150;2022-09-13T04:52:35;4.34;;;2.36;;
61473;SDS011;53694;49.784;30.150;2022-09-13T04:53:37;4.54;;;2.47;;
61473;SDS011;53694;49.784;30.150;2022-09-13T04:54:38;5.29;;;2.65;;
61473;SDS011;53694;49.784;30.150;2022-09-13T04:55:39;4.69;;;2.39;;
61473;SDS011;53694;49.784;30.150;2022-09-13T04:56:42;4.97;;;2.99;;
61473;SDS011;53694;49.784;30.150;2022-09-13T04:57:44;3.83;;;2.15;;
61473;SDS011;53694;49.784;30.150;2022-09-13T04:58:45;5.14;;;3.05;;
61473;SDS011;53694;49.784;30.150;2022-09-13T04:59:47;4.16;;;1.94;;
61473;SDS011;53694;49.784;30.150;2022-09-13T05:00:48;5.61;;;2.46;;
61473;SDS011;53694;49.784;30.150;2022-09-13T05:01:50;3.53;;;1.91;;
61473;SDS011;53694;49.784;30.150;2022-09-13T05:02:55;4.61;;;2.33;;
61473;SDS011;53694;49.784;30.150;2022-09-13T05:03:57;3.07;;;1.71;;
61473;SDS011;53694;49.784;30.150;2022-09-13T05:04:58;5.23;;;1.99;;
61473;SDS011;53694;49.784;30.150;2022-09-13T05:06:07;3.63;;;1.66;;
61473;SDS011;53694;49.784;30.150;2022-09-13T05:07:10;3.98;;;1.80;;
61473;SDS011;53694;49.784;30.150;2022-09-13T05:08:12;3.33;;;1.62;;
61473;SDS011;53694;49.784;30.150;2022-09-13T05:09:14;3.23;;;1.70;;
61473;SDS011;53694;49.784;30.150;2022-09-13T05:10:16;3.29;;;1.68;;
61473;SDS011;53694;49.784;30.150;2022-09-13T05:11:18;6.59;;;2.22;;
61473;SDS011;53694;49.784;30.150;2022-09-13T05:12:19;3.26;;;1.75;;
61473;SDS011;53694;49.784;30.150;2022-09-13T05:13:21;4.16;;;2.07;;
61473;SDS011;53694;49.784;30.150;2022-09-13T05:14:22;4.98;;;2.18;;
61473;SDS011;53694;49.784;30.150;2022-09-13T05:15:24;3.76;;;2.21;;
61473;SDS011;53694;49.784;30.150;2022-09-13T05:16:28;5.81;;;2.14;;
61473;SDS011;53694;49.784;30.150;2022-09-13T05:17:31;4.04;;;2.12;;
61473;SDS011;53694;49.784;30.150;2022-09-13T05:18:34;5.57;;;2.29;;
61473;SDS011;53694;49.784;30.150;2022-09-13T05:19:36;4.20;;;2.29;;
61473;SDS011;53694;49.784;30.150;2022-09-13T05:20:38;6.18;;;1.93;;
61473;SDS011;53694;49.784;30.150;2022-09-13T05:21:40;4.07;;;1.68;;
61473;SDS011;53694;49.784;30.150;2022-09-13T05:22:41;5.29;;;1.79;;
61473;SDS011;53694;49.784;30.150;2022-09-13T05:23:43;3.62;;;1.91;;
61473;SDS011;53694;49.784;30.150;2022-09-13T05:24:45;4.04;;;2.08;;
61473;SDS011;53694;49.784;30.150;2022-09-13T05:25:51;4.02;;;1.99;;
61473;SDS011;53694;49.784;30.150;2022-09-13T05:26:53;3.84;;;2.20;;
61473;SDS011;53694;49.784;30.150;2022-09-13T05:27:55;3.93;;;1.99;;
61473;SDS011;53694;49.784;30.150;2022-09-13T05:28:57;3.56;;;1.96;;
61473;SDS011;53694;49.784;30.150;2022-09-13T05:29:59;3.42;;;2.02;;
61473;SDS011;53694;49.784;30.150;2022-09-13T05:31:09;4.85;;;2.29;;
61473;SDS011;53694;49.784;30.150;2022-09-13T05:32:15;3.74;;;1.90;;
61473;SDS011;53694;49.784;30.150;2022-09-13T05:33:17;5.34;;;2.09;;
61473;SDS011;53694;49.784;30.150;2022-09-13T05:34:18;14.10;;;7.88;;
61473;SDS011;53694;49.784;30.150;2022-09-13T05:35:20;5.16;;;2.74;;
61473;SDS011;53694;49.784;30.150;2022-09-13T05:36:23;5.19;;;2.64;;
61473;SDS011;53694;49.784;30.150;2022-09-13T05:37:25;5.87;;;2.59;;
61473;SDS011;53694;49.784;30.150;2022-09-13T05:38:27;5.50;;;3.09;;
61473;SDS011;53694;49.784;30.150;2022-09-13T05:39:28;5.56;;;2.49;;
61473;SDS011;53694;49.784;30.150;2022-09-13T05:40:30;5.31;;;2.45;;
61473;SDS011;53694;49.784;30.150;2022-09-13T05:41:32;5.81;;;2.64;;
61473;SDS011;53694;49.784;30.150;2022-09-13T05:42:33;6.85;;;3.64;;
61473;SDS011;53694;49.784;30.150;2022-09-13T05:43:35;4.84;;;3.29;;
61473;SDS011;53694;49.784;30.150;2022-09-13T05:44:37;5.51;;;2.85;;
61473;SDS011;53694;49.784;30.150;2022-09-13T05:45:39;4.79;;;2.34;;
61473;SDS011;53694;49.784;30.150;2022-09-13T05:46:41;5.83;;;2.76;;
61473;SDS011;53694;49.784;30.150;2022-09-13T05:47:43;4.82;;;2.80;;
61473;SDS011;53694;49.784;30.150;2022-09-13T05:48:45;4.15;;;2.54;;
61473;SDS011;53694;49.784;30.150;2022-09-13T05:49:46;4.73;;;3.25;;
61473;SDS011;53694;49.784;30.150;2022-09-13T05:50:48;4.64;;;2.39;;
61473;SDS011;53694;49.784;30.150;2022-09-13T05:51:49;4.74;;;2.52;;
61473;SDS011;53694;49.784;30.150;2022-09-13T05:52:51;4.92;;;2.59;;
61473;SDS011;53694;49.784;30.150;2022-09-13T05:53:53;4.13;;;2.15;;
61473;SDS011;53694;49.784;30.150;2022-09-13T05:54:55;4.12;;;2.15;;
61473;SDS011;53694;49.784;30.150;2022-09-13T05:55:57;4.70;;;2.35;;
61473;SDS011;53694;49.784;30.150;2022-09-13T05:56:59;4.96;;;2.63;;
61473;SDS011;53694;49.784;30.150;2022-09-13T05:58:00;4.39;;;2.48;;
61473;SDS011;53694;49.784;30.150;2022-09-13T05:59:02;5.52;;;2.89;;
61473;SDS011;53694;49.784;30.150;2022-09-13T06:00:04;7.45;;;3.23;;
61473;SDS011;53694;49.784;30.150;2022-09-13T06:01:06;5.70;;;2.99;;
61473;SDS011;53694;49.784;30.150;2022-09-13T06:02:09;6.29;;;3.87;;
61473;SDS011;53694;49.784;30.150;2022-09-13T06:03:10;5.96;;;3.55;;
61473;SDS011;53694;49.784;30.150;2022-09-13T06:04:12;5.85;;;3.16;;
61473;SDS011;53694;49.784;30.150;2022-09-13T06:05:14;5.11;;;3.01;;
61473;SDS011;53694;49.784;30.150;2022-09-13T06:06:16;4.63;;;2.74;;
61473;SDS011;53694;49.784;30.150;2022-09-13T06:07:18;4.43;;;2.55;;
61473;SDS011;53694;49.784;30.150;2022-09-13T06:08:19;3.85;;;2.48;;
61473;SDS011;53694;49.784;30.150;2022-09-13T06:09:21;5.75;;;3.28;;
61473;SDS011;53694;49.784;30.150;2022-09-13T06:10:24;6.43;;;2.86;;
61473;SDS011;53694;49.784;30.150;2022-09-13T06:11:25;5.89;;;3.11;;
61473;SDS011;53694;49.784;30.150;2022-09-13T06:12:27;5.21;;;3.61;;
61473;SDS011;53694;49.784;30.150;2022-09-13T06:13:29;6.04;;;3.72;;
61473;SDS011;53694;49.784;30.150;2022-09-13T06:14:30;4.62;;;3.08;;
61473;SDS011;53694;49.784;30.150;2022-09-13T06:15:32;4.83;;;3.33;;
61473;SDS011;53694;49.784;30.150;2022-09-13T06:16:34;6.19;;;3.91;;
61473;SDS011;53694;49.784;30.150;2022-09-13T06:17:36;6.74;;;4.34;;
61473;SDS011;53694;49.784;30.150;2022-09-13T06:18:38;8.01;;;4.79;;
61473;SDS011;53694;49.784;30.150;2022-09-13T06:19:40;11.71;;;6.02;;
61473;SDS011;53694;49.784;30.150;2022-09-13T06:20:41;11.86;;;6.01;;
61473;SDS011;53694;49.784;30.150;2022-09-13T06:21:43;9.91;;;6.47;;
61473;SDS011;53694;49.784;30.150;2022-09-13T06:22:46;10.72;;;7.00;;
61473;SDS011;53694;49.784;30.150;2022-09-13T06:23:54;15.26;;;7.94;;
61473;SDS011;53694;49.784;30.150;2022-09-13T06:24:55;13.78;;;8.05;;
61473;SDS011;53694;49.784;30.150;2022-09-13T06:26:09;10.71;;;6.28;;
61473;SDS011;53694;49.784;30.150;2022-09-13T06:27:13;9.18;;;5.55;;
61473;SDS011;53694;49.784;30.150;2022-09-13T06:28:14;8.08;;;5.44;;
61473;SDS011;53694;49.784;30.150;2022-09-13T06:29:16;9.77;;;6.11;;
61473;SDS011;53694;49.784;30.150;2022-09-13T06:30:19;9.39;;;5.88;;
61473;SDS011;53694;49.784;30.150;2022-09-13T06:31:22;9.33;;;6.51;;
61473;SDS011;53694;49.784;30.150;2022-09-13T06:32:25;10.29;;;5.73;;
61473;SDS011;53694;49.784;30.150;2022-09-13T06:33:26;8.89;;;5.52;;
61473;SDS011;53694;49.784;30.150;2022-09-13T06:34:28;9.18;;;5.95;;
61473;SDS011;53694;49.784;30.150;2022-09-13T06:35:30;7.01;;;4.99;;
61473;SDS011;53694;49.784;30.150;2022-09-13T06:36:32;8.27;;;5.25;;
61473;SDS011;53694;49.784;30.150;2022-09-13T06:37:33;11.48;;;6.24;;
61473;SDS011;53694;49.784;30.150;2022-09-13T06:38:35;9.44;;;5.81;;
61473;SDS011;53694;49.784;30.150;2022-09-13T06:39:36;14.57;;;6.53;;
61473;SDS011;53694;49.784;30.150;2022-09-13T06:40:38;10.75;;;6.27;;
61473;SDS011;53694;49.784;30.150;2022-09-13T06:41:39;9.32;;;6.81;;
61473;SDS011;53694;49.784;30.150;2022-09-13T06:42:41;9.96;;;6.91;;
61473;SDS011;53694;49.784;30.150;2022-09-13T06:43:43;10.37;;;7.35;;
61473;SDS011;53694;49.784;30.150;2022-09-13T06:44:45;10.47;;;6.85;;
61473;SDS011;53694;49.784;30.150;2022-09-13T06:45:47;14.63;;;7.09;;
61473;SDS011;53694;49.784;30.150;2022-09-13T06:46:48;9.74;;;5.99;;
61473;SDS011;53694;49.784;30.150;2022-09-13T06:47:51;10.46;;;6.39;;
61473;SDS011;53694;49.784;30.150;2022-09-13T06:48:54;13.51;;;6.29;;
61473;SDS011;53694;49.784;30.150;2022-09-13T06:49:55;10.32;;;6.60;;
61473;SDS011;53694;49.784;30.150;2022-09-13T06:50:58;9.41;;;6.46;;
61473;SDS011;53694;49.784;30.150;2022-09-13T06:52:01;11.28;;;7.21;;
61473;SDS011;53694;49.784;30.150;2022-09-13T06:53:03;11.63;;;6.69;;
61473;SDS011;53694;49.784;30.150;2022-09-13T06:54:04;9.03;;;5.98;;
61473;SDS011;53694;49.784;30.150;2022-09-13T06:55:06;9.29;;;6.66;;
61473;SDS011;53694;49.784;30.150;2022-09-13T06:56:10;8.79;;;5.87;;
61473;SDS011;53694;49.784;30.150;2022-09-13T06:57:14;9.83;;;5.97;;
61473;SDS011;53694;49.784;30.150;2022-09-13T06:58:15;8.55;;;6.14;;
61473;SDS011;53694;49.784;30.150;2022-09-13T06:59:17;10.86;;;6.60;;
61473;SDS011;53694;49.784;30.150;2022-09-13T07:00:20;10.99;;;6.47;;
61473;SDS011;53694;49.784;30.150;2022-09-13T07:01:22;11.16;;;6.79;;
61473;SDS011;53694;49.784;30.150;2022-09-13T07:02:29;10.97;;;8.17;;
61473;SDS011;53694;49.784;30.150;2022-09-13T07:03:30;10.81;;;7.40;;
61473;SDS011;53694;49.784;30.150;2022-09-13T07:04:32;14.73;;;8.83;;
61473;SDS011;53694;49.784;30.150;2022-09-13T07:05:33;12.07;;;8.83;;
61473;SDS011;53694;49.784;30.150;2022-09-13T07:06:36;11.66;;;8.05;;
61473;SDS011;53694;49.784;30.150;2022-09-13T07:07:40;12.11;;;7.10;;
61473;SDS011;53694;49.784;30.150;2022-09-13T07:08:42;10.89;;;7.46;;
61473;SDS011;53694;49.784;30.150;2022-09-13T07:09:44;12.66;;;6.42;;
61473;SDS011;53694;49.784;30.150;2022-09-13T07:10:46;13.30;;;8.60;;